Time;durP1;ratioP1;P1;durP2;ratioP2;P2;SDS_P1;SDS_P2;PMS_P1;PMS_P2;Temp;Humidity;BMP_temperature;BMP_pressure;BME280_temperature;BME280_humidity;BME280_pressure;Samples;Min_cycle;Max_cycle;Signal;HPM_P1;HPM_P2
2022/08/27 00:01:49;;;;;;;4.38;0.60;;;23.90;66.20;;;;;;5093440;28;20048;-63
2022/08/27 00:04:14;;;;;;;2.10;0.47;;;23.90;66.20;;;;;;5093888;28;20040;-63
2022/08/27 00:06:40;;;;;;;1.63;0.40;;;23.90;66.20;;;;;;5094145;28;20036;-63
2022/08/27 00:09:05;;;;;;;1.73;0.40;;;23.90;66.20;;;;;;5093039;28;20527;-62
2022/08/27 00:11:31;;;;;;;2.33;0.50;;;23.90;66.20;;;;;;5093838;28;20143;-63
2022/08/27 00:13:57;;;;;;;1.40;0.40;;;23.90;66.20;;;;;;5094029;28;20115;-62
2022/08/27 00:16:23;;;;;;;2.92;0.57;;;23.90;66.20;;;;;;5093054;28;20047;-63
2022/08/27 00:18:48;;;;;;;1.42;0.40;;;23.90;66.20;;;;;;5093663;28;20055;-63
2022/08/27 00:21:15;;;;;;;3.08;0.55;;;23.90;66.20;;;;;;5093596;28;20044;-63
2022/08/27 00:23:40;;;;;;;1.60;0.50;;;23.90;66.20;;;;;;5092926;28;20048;-63
2022/08/27 00:26:06;;;;;;;1.77;0.50;;;23.90;66.20;;;;;;5093599;28;20069;-63
2022/08/27 00:28:32;;;;;;;1.45;0.57;;;23.90;66.20;;;;;;5093544;28;20059;-63
2022/08/27 00:30:58;;;;;;;2.33;0.50;;;23.90;66.20;;;;;;5093112;28;20137;-63
2022/08/27 00:33:23;;;;;;;1.67;0.50;;;23.90;66.20;;;;;;5092686;28;20507;-63
2022/08/27 00:35:49;;;;;;;3.50;0.50;;;23.90;66.20;;;;;;5093687;28;20037;-63
2022/08/27 00:38:15;;;;;;;1.67;0.40;;;23.90;66.20;;;;;;5092452;28;20051;-63
2022/08/27 00:40:40;;;;;;;1.90;0.50;;;23.80;66.10;;;;;;5093596;28;20543;-63
2022/08/27 00:43:06;;;;;;;2.97;0.50;;;23.90;66.20;;;;;;5092998;28;20044;-63
2022/08/27 00:45:35;;;;;;;1.73;0.50;;;23.80;66.20;;;;;;5092863;28;20047;-63
2022/08/27 00:48:01;;;;;;;1.88;0.52;;;23.90;66.20;;;;;;5093375;28;20047;-63
2022/08/27 00:50:35;;;;;;;2.28;0.40;;;23.80;66.10;;;;;;5074146;28;20078;-63
2022/08/27 00:53:06;;;;;;;3.08;0.65;;;23.80;66.10;;;;;;5075338;28;20506;-63
2022/08/27 00:55:42;;;;;;;2.13;0.50;;;23.80;66.10;;;;;;5092791;28;20387;-63
2022/08/27 00:58:10;;;;;;;3.70;0.60;;;23.80;66.10;;;;;;5091378;28;20043;-62
2022/08/27 01:00:35;;;;;;;2.53;0.60;;;23.80;66.20;;;;;;5091550;28;20055;-63
2022/08/27 01:03:01;;;;;;;1.45;0.40;;;23.80;66.10;;;;;;5092960;28;20051;-63
2022/08/27 01:05:27;;;;;;;1.85;0.40;;;23.80;66.10;;;;;;5091919;28;20483;-63
2022/08/27 01:07:55;;;;;;;1.83;0.30;;;23.80;66.10;;;;;;5093238;28;20044;-63
2022/08/27 01:10:21;;;;;;;1.25;0.40;;;23.80;66.10;;;;;;5075021;28;20068;-63
2022/08/27 01:12:47;;;;;;;1.85;0.50;;;23.80;66.10;;;;;;5092266;28;20048;-62
2022/08/27 01:15:14;;;;;;;1.20;0.30;;;23.80;66.10;;;;;;5092982;28;20126;-62
2022/08/27 01:17:41;;;;;;;2.42;0.50;;;23.80;66.10;;;;;;5091308;28;20111;-62
2022/08/27 01:20:11;;;;;;;1.25;0.40;;;23.80;66.10;;;;;;5090802;28;20075;-63
2022/08/27 01:22:50;;;;;;;3.22;0.70;;;23.80;66.10;;;;;;5091511;28;20043;-63
2022/08/27 01:25:16;;;;;;;1.20;0.40;;;23.80;66.10;;;;;;5074260;28;20089;-63
2022/08/27 01:27:42;;;;;;;2.17;0.52;;;23.70;66.10;;;;;;5090473;28;20507;-62
2022/08/27 01:30:08;;;;;;;2.42;0.50;;;23.70;66.10;;;;;;5091642;28;20055;-62
2022/08/27 01:32:35;;;;;;;1.98;0.50;;;23.70;66.00;;;;;;5091364;28;20067;-63
2022/08/27 01:35:01;;;;;;;1.00;0.40;;;23.80;66.10;;;;;;5092438;28;20080;-62
2022/08/27 01:37:27;;;;;;;1.92;0.40;;;23.80;66.10;;;;;;5092187;28;20127;-62
2022/08/27 01:39:53;;;;;;;2.17;0.45;;;23.70;66.00;;;;;;5091968;28;20188;-63
2022/08/27 01:42:26;;;;;;;1.10;0.50;;;23.80;66.10;;;;;;5092131;28;20051;-63
2022/08/27 01:44:54;;;;;;;1.77;0.60;;;23.70;66.00;;;;;;5075502;28;20047;-62
2022/08/27 01:47:20;;;;;;;2.97;0.55;;;23.70;66.00;;;;;;5091230;28;20522;-62
2022/08/27 01:49:46;;;;;;;1.35;0.40;;;23.80;66.10;;;;;;5092543;28;20044;-63
2022/08/27 01:52:13;;;;;;;2.03;0.40;;;23.70;66.00;;;;;;5092605;28;20051;-63
2022/08/27 01:54:39;;;;;;;1.77;0.50;;;23.70;66.00;;;;;;5090502;28;20410;-63
2022/08/27 01:57:04;;;;;;;1.88;0.60;;;23.70;66.00;;;;;;5092279;28;20056;-62
2022/08/27 01:59:30;;;;;;;1.20;0.40;;;23.70;65.90;;;;;;5091976;28;20055;-63
2022/08/27 02:01:55;;;;;;;1.83;0.52;;;23.70;65.90;;;;;;5090785;28;20090;-63
2022/08/27 02:04:21;;;;;;;2.15;0.50;;;23.70;66.00;;;;;;5091576;28;20044;-63
2022/08/27 02:06:47;;;;;;;2.83;0.63;;;23.70;66.00;;;;;;5091914;28;20043;-63
2022/08/27 02:09:12;;;;;;;2.47;0.60;;;23.70;66.00;;;;;;5090119;28;20048;-63
2022/08/27 02:11:38;;;;;;;1.63;0.50;;;23.70;66.00;;;;;;5091906;28;20044;-63
2022/08/27 02:14:03;;;;;;;1.13;0.40;;;23.70;66.00;;;;;;5092206;28;20050;-63
2022/08/27 02:16:31;;;;;;;1.30;0.50;;;23.70;66.00;;;;;;5091194;28;20050;-63
2022/08/27 02:18:59;;;;;;;1.33;0.50;;;23.70;66.00;;;;;;5124819;28;20040;-63
2022/08/27 02:21:25;;;;;;;1.00;0.40;;;23.70;66.60;;;;;;5091909;28;20083;-63
2022/08/27 02:23:50;;;;;;;1.55;0.50;;;23.70;66.00;;;;;;5091261;28;20075;-63
2022/08/27 02:26:16;;;;;;;1.83;0.40;;;23.70;66.00;;;;;;5092004;28;20063;-63
2022/08/27 02:28:42;;;;;;;1.50;0.40;;;23.70;66.00;;;;;;5091115;28;20032;-62
2022/08/27 02:31:08;;;;;;;1.25;0.40;;;23.70;66.00;;;;;;5095349;28;20134;-63
2022/08/27 02:33:34;;;;;;;1.85;0.60;;;23.70;66.00;;;;;;5095388;28;20103;-62
2022/08/27 02:36:00;;;;;;;1.75;0.82;;;23.60;66.00;;;;;;5095313;28;20143;-63
2022/08/27 02:38:26;;;;;;;2.25;0.60;;;23.70;66.10;;;;;;5095599;28;20462;-63
2022/08/27 02:40:52;;;;;;;1.70;0.47;;;23.70;66.00;;;;;;5095645;28;20099;-63
2022/08/27 02:43:17;;;;;;;1.58;0.43;;;23.70;66.00;;;;;;5094544;28;20040;-63
2022/08/27 02:45:43;;;;;;;2.33;0.45;;;23.70;66.00;;;;;;5095920;28;20226;-63
2022/08/27 02:48:08;;;;;;;1.67;0.40;;;23.70;66.10;;;;;;5128302;27;20043;-63
2022/08/27 02:50:34;;;;;;;1.15;0.43;;;23.70;66.00;;;;;;5094624;28;20117;-63
2022/08/27 02:53:01;;;;;;;0.95;0.43;;;23.70;66.00;;;;;;5095766;28;20119;-63
2022/08/27 02:55:27;;;;;;;1.10;0.40;;;23.60;66.00;;;;;;5095086;28;20095;-63
2022/08/27 02:57:52;;;;;;;0.95;0.50;;;23.60;66.00;;;;;;5094698;28;20451;-63
2022/08/27 03:00:19;;;;;;;2.33;0.50;;;23.60;66.00;;;;;;5095017;28;20048;-63
2022/08/27 03:02:45;;;;;;;0.95;0.40;;;23.60;66.00;;;;;;5095543;28;20054;-63
2022/08/27 03:05:11;;;;;;;1.65;0.45;;;23.60;66.00;;;;;;5094593;28;20043;-63
2022/08/27 03:07:37;;;;;;;0.88;0.50;;;23.70;66.10;;;;;;5095191;28;20043;-63
2022/08/27 03:10:03;;;;;;;1.55;0.60;;;23.60;66.00;;;;;;5095410;28;20048;-63
2022/08/27 03:12:29;;;;;;;1.35;0.50;;;23.60;66.00;;;;;;5094150;28;20168;-63
2022/08/27 03:14:54;;;;;;;3.10;0.60;;;23.60;66.00;;;;;;5094970;28;20119;-63
2022/08/27 03:20:06;;;;;;;1.95;0.60;;;23.60;66.00;;;;;;5093879;28;20056;-63
2022/08/27 03:22:31;;;;;;;2.17;0.52;;;23.60;66.10;;;;;;5094852;28;20089;-62
2022/08/27 03:24:57;;;;;;;1.73;0.60;;;23.60;66.00;;;;;;5094226;28;20044;-63
2022/08/27 03:27:22;;;;;;;1.83;0.40;;;23.60;66.00;;;;;;5094676;28;20044;-63
2022/08/27 03:29:48;;;;;;;1.02;0.40;;;23.60;66.10;;;;;;5094951;28;20040;-62
2022/08/27 03:32:13;;;;;;;1.33;0.45;;;23.60;66.00;;;;;;5093660;28;20048;-63
2022/08/27 03:34:39;;;;;;;1.13;0.40;;;23.60;66.00;;;;;;5094890;28;20196;-63
2022/08/27 03:37:04;;;;;;;1.25;0.40;;;23.60;66.00;;;;;;5094814;28;20144;-63
2022/08/27 03:39:30;;;;;;;1.50;0.40;;;23.60;66.00;;;;;;5093790;28;20098;-62
2022/08/27 03:41:56;;;;;;;1.25;0.50;;;23.60;66.00;;;;;;5126944;27;20094;-63
2022/08/27 03:44:24;;;;;;;0.80;0.40;;;23.60;66.00;;;;;;5094383;28;20051;-63
2022/08/27 03:46:50;;;;;;;1.50;0.47;;;23.60;65.90;;;;;;5093806;28;20048;-63
2022/08/27 03:49:17;;;;;;;2.20;0.40;;;23.60;65.90;;;;;;5093845;28;20051;-63
2022/08/27 03:51:43;;;;;;;1.98;0.65;;;23.60;65.90;;;;;;5094239;28;20040;-63
2022/08/27 03:54:09;;;;;;;1.17;0.40;;;23.60;66.00;;;;;;5093641;28;20050;-63
2022/08/27 03:56:38;;;;;;;1.13;0.30;;;23.60;66.00;;;;;;5093751;28;20410;-63
2022/08/27 03:59:04;;;;;;;2.42;0.47;;;23.60;66.00;;;;;;5094359;28;20051;-63
2022/08/27 04:01:30;;;;;;;1.35;0.50;;;23.50;65.90;;;;;;5092341;28;20106;-63
2022/08/27 04:03:56;;;;;;;1.50;0.50;;;23.50;65.90;;;;;;5093093;28;20070;-63
2022/08/27 04:06:21;;;;;;;1.35;0.40;;;23.60;66.00;;;;;;5092627;28;20032;-63
2022/08/27 04:08:47;;;;;;;0.40;0.28;;;23.60;66.00;;;;;;5093063;28;20058;-63
2022/08/27 04:11:13;;;;;;;0.98;0.40;;;23.50;65.90;;;;;;5093591;28;20450;-63
2022/08/27 04:13:39;;;;;;;1.25;0.47;;;23.60;66.00;;;;;;5093976;28;20480;-63
2022/08/27 04:16:05;;;;;;;2.00;0.80;;;23.50;65.90;;;;;;5093302;28;20096;-63
2022/08/27 04:18:31;;;;;;;2.10;0.57;;;23.50;66.50;;;;;;5093630;28;20040;-62
2022/08/27 04:20:57;;;;;;;1.63;0.52;;;23.50;65.90;;;;;;5093726;28;20423;-63
2022/08/27 04:23:22;;;;;;;1.23;0.50;;;23.50;65.90;;;;;;5092743;28;20480;-62
2022/08/27 04:25:48;;;;;;;1.17;0.40;;;23.50;66.00;;;;;;5093525;28;20055;-63
2022/08/27 04:28:13;;;;;;;1.25;0.57;;;23.50;65.90;;;;;;5092960;28;20039;-63
2022/08/27 04:30:40;;;;;;;2.17;0.60;;;23.50;66.00;;;;;;5093772;28;20043;-63
2022/08/27 04:33:06;;;;;;;1.15;0.50;;;23.50;66.00;;;;;;5092184;28;20127;-62
2022/08/27 04:35:32;;;;;;;1.25;0.35;;;23.50;65.90;;;;;;5092621;28;20147;-63
2022/08/27 04:37:57;;;;;;;2.20;0.60;;;23.50;65.90;;;;;;5093698;28;20043;-63
2022/08/27 04:41:18;;;;;;;1.25;0.75;;;23.50;66.00;;;;;;5092935;28;20407;-63
2022/08/27 04:43:08;;;;;;;1.73;0.60;;;23.50;66.00;;;;;;5092436;28;20052;-63
2022/08/27 04:45:44;;;;;;;1.63;0.40;;;23.50;66.00;;;;;;5093273;28;20044;-63
2022/08/27 04:48:11;;;;;;;0.93;0.40;;;23.50;66.00;;;;;;5093580;28;20047;-63
2022/08/27 04:50:44;;;;;;;1.00;0.47;;;23.50;66.00;;;;;;5092259;28;20039;-63
2022/08/27 04:53:10;;;;;;;1.40;0.40;;;23.50;66.00;;;;;;5092566;28;20047;-63
2022/08/27 04:55:47;;;;;;;1.58;0.40;;;23.50;66.00;;;;;;5093225;28;20127;-63
2022/08/27 04:58:13;;;;;;;1.08;0.40;;;23.50;66.00;;;;;;5092449;28;20044;-63
2022/08/27 05:00:42;;;;;;;0.90;0.40;;;23.50;66.00;;;;;;5092982;28;20073;-63
2022/08/27 05:03:08;;;;;;;1.95;0.50;;;23.50;66.10;;;;;;5092478;28;20050;-63
2022/08/27 05:05:34;;;;;;;1.35;0.40;;;23.50;66.00;;;;;;5091976;28;20139;-63
2022/08/27 05:07:59;;;;;;;0.77;0.35;;;23.50;66.00;;;;;;5091583;28;20047;-61
2022/08/27 05:10:25;;;;;;;1.70;0.50;;;23.50;66.00;;;;;;5092187;28;20101;-61
2022/08/27 05:12:50;;;;;;;1.17;0.50;;;23.50;66.00;;;;;;5092906;28;20399;-63
2022/08/27 05:15:16;;;;;;;1.13;0.43;;;23.40;65.90;;;;;;5092594;28;20043;-63
2022/08/27 05:17:42;;;;;;;2.78;0.50;;;23.40;66.00;;;;;;5091977;28;20051;-63
2022/08/27 05:20:09;;;;;;;3.47;0.50;;;23.40;65.90;;;;;;5092865;28;20093;-62
2022/08/27 05:22:35;;;;;;;2.00;0.63;;;23.40;66.00;;;;;;5092632;28;20040;-63
2022/08/27 05:25:00;;;;;;;3.80;0.82;;;23.50;66.10;;;;;;5092021;28;20051;-62
2022/08/27 05:27:26;;;;;;;6.18;0.80;;;23.50;66.10;;;;;;5092294;28;20047;-62
2022/08/27 05:29:51;;;;;;;2.40;0.60;;;23.50;66.10;;;;;;5092588;28;20040;-62
2022/08/27 05:32:17;;;;;;;3.90;0.75;;;23.50;66.10;;;;;;5091366;28;20052;-63
2022/08/27 05:34:42;;;;;;;3.03;0.70;;;23.50;66.20;;;;;;5092669;28;20075;-63
2022/08/27 05:37:08;;;;;;;1.58;0.70;;;23.50;66.40;;;;;;5091978;28;20044;-63
2022/08/27 05:39:34;;;;;;;5.22;0.70;;;23.50;66.40;;;;;;5091514;28;20047;-64
2022/08/27 05:41:59;;;;;;;2.03;0.52;;;23.50;66.50;;;;;;5092605;28;20079;-63
2022/08/27 05:44:25;;;;;;;3.63;0.73;;;23.60;66.60;;;;;;5092185;28;20051;-64
2022/08/27 05:46:50;;;;;;;10.50;0.70;;;23.50;66.60;;;;;;5091723;28;20105;-63
2022/08/27 05:49:16;;;;;;;3.03;0.68;;;23.50;66.70;;;;;;5091429;28;20056;-64
2022/08/27 05:51:42;;;;;;;1.50;0.50;;;23.50;66.70;;;;;;5092551;28;20101;-64
2022/08/27 05:54:13;;;;;;;1.45;0.50;;;23.60;66.80;;;;;;5090130;28;20050;-63
2022/08/27 05:56:40;;;;;;;5.57;0.90;;;23.60;66.70;;;;;;5090508;28;20038;-62
2022/08/27 06:01:52;;;;;;;2.25;0.70;;;23.60;66.50;;;;;;5091649;28;20083;-63
2022/08/27 06:04:19;;;;;;;3.08;0.65;;;23.60;66.50;;;;;;5094184;28;20040;-63
2022/08/27 06:06:44;;;;;;;6.80;0.90;;;23.60;66.50;;;;;;5095705;28;20104;-63
2022/08/27 06:09:11;;;;;;;5.45;0.73;;;23.60;66.40;;;;;;5096637;28;20433;-62
2022/08/27 06:11:37;;;;;;;9.27;2.75;;;23.60;66.60;;;;;;5096409;28;20498;-63
2022/08/27 06:14:03;;;;;;;6.50;1.50;;;23.60;66.60;;;;;;5095785;28;20048;-63
2022/08/27 06:16:29;;;;;;;12.95;3.45;;;23.60;66.50;;;;;;5096290;28;20059;-63
2022/08/27 06:18:56;;;;;;;5.50;1.20;;;23.60;66.60;;;;;;5096227;28;20484;-63
2022/08/27 06:21:21;;;;;;;3.75;0.73;;;23.60;66.60;;;;;;5095396;28;20040;-62
2022/08/27 06:23:47;;;;;;;7.13;1.45;;;23.60;66.70;;;;;;5096187;28;20410;-61
2022/08/27 06:26:13;;;;;;;5.80;2.03;;;23.60;66.80;;;;;;5096178;28;20047;-62
2022/08/27 06:28:43;;;;;;;5.70;1.63;;;23.60;66.90;;;;;;5095530;28;20036;-62
2022/08/27 06:31:16;;;;;;;5.05;1.88;;;23.60;66.90;;;;;;5096570;28;20040;-63
2022/08/27 06:33:43;;;;;;;6.80;1.90;;;23.60;67.10;;;;;;5095748;28;20109;-63
2022/08/27 06:36:10;;;;;;;6.85;1.83;;;23.60;67.10;;;;;;5094755;28;20083;-67
2022/08/27 06:38:36;;;;;;;7.57;2.00;;;23.60;67.00;;;;;;5095339;28;20513;-62
2022/08/27 06:41:03;;;;;;;6.97;1.77;;;23.60;67.00;;;;;;5095421;28;20539;-62
2022/08/27 06:43:29;;;;;;;7.28;1.90;;;23.60;66.90;;;;;;5095140;28;20126;-61
2022/08/27 06:45:54;;;;;;;6.78;1.95;;;23.70;67.00;;;;;;5095982;28;20051;-64
2022/08/27 06:48:20;;;;;;;5.60;1.83;;;23.60;67.10;;;;;;5095181;28;20040;-64
2022/08/27 06:50:45;;;;;;;8.13;1.55;;;23.60;67.10;;;;;;5094483;28;20055;-65
2022/08/27 06:53:11;;;;;;;5.35;2.08;;;23.60;67.10;;;;;;5095711;28;20047;-65
2022/08/27 06:55:46;;;;;;;6.90;1.85;;;23.70;67.10;;;;;;5095469;28;20040;-64
2022/08/27 06:58:12;;;;;;;8.77;2.25;;;23.60;67.00;;;;;;5094907;28;20048;-64
2022/08/27 07:00:38;;;;;;;5.57;1.60;;;23.60;66.90;;;;;;5095817;28;20047;-64
2022/08/27 07:03:05;;;;;;;6.85;1.75;;;23.60;66.90;;;;;;5094993;28;20208;-64
2022/08/27 07:05:35;;;;;;;5.37;1.50;;;23.60;66.90;;;;;;5095425;28;20059;-64
2022/08/27 07:08:01;;;;;;;6.60;2.15;;;23.60;66.80;;;;;;5095665;28;20306;-64
2022/08/27 07:10:26;;;;;;;4.13;1.30;;;23.60;66.80;;;;;;5094649;28;20047;-65
2022/08/27 07:12:52;;;;;;;6.90;2.13;;;23.60;66.80;;;;;;5094379;28;20052;-64
2022/08/27 07:15:18;;;;;;;3.92;1.40;;;23.60;66.80;;;;;;5094432;28;20484;-65
2022/08/27 07:17:43;;;;;;;4.20;1.38;;;23.60;66.90;;;;;;5094380;28;20079;-65
2022/08/27 07:20:12;;;;;;;5.53;1.83;;;23.60;66.90;;;;;;5095306;28;20131;-64
2022/08/27 07:22:39;;;;;;;6.20;2.00;;;23.60;66.90;;;;;;5093574;28;20067;-65
2022/08/27 07:25:05;;;;;;;4.28;1.42;;;23.60;66.80;;;;;;5094637;28;20043;-64
2022/08/27 07:27:31;;;;;;;7.97;1.63;;;23.60;66.90;;;;;;5095107;28;20040;-64
2022/08/27 07:29:57;;;;;;;4.07;1.40;;;23.60;66.90;;;;;;5094972;28;20066;-64
2022/08/27 07:32:23;;;;;;;6.13;1.50;;;23.60;66.90;;;;;;5093991;28;20052;-64
2022/08/27 07:34:48;;;;;;;6.88;1.52;;;23.60;66.90;;;;;;5094799;28;20048;-64
2022/08/27 07:37:14;;;;;;;4.38;1.63;;;23.60;67.00;;;;;;5094730;28;20048;-64
2022/08/27 07:39:39;;;;;;;4.38;1.25;;;23.60;67.00;;;;;;5094211;28;20099;-64
2022/08/27 07:44:49;;;;;;;5.85;1.58;;;23.60;67.00;;;;;;5095085;28;20048;-65
2022/08/27 07:47:15;;;;;;;5.75;1.15;;;23.70;66.90;;;;;;5093620;28;20044;-64
2022/08/27 07:49:40;;;;;;;6.15;1.52;;;23.70;66.90;;;;;;5094611;28;20040;-64
2022/08/27 07:52:06;;;;;;;4.45;1.20;;;23.70;66.90;;;;;;5094803;28;20233;-64
2022/08/27 07:54:31;;;;;;;4.07;1.40;;;23.70;66.90;;;;;;5093845;28;20036;-65
2022/08/27 07:56:57;;;;;;;4.13;1.30;;;23.70;66.80;;;;;;5094779;28;20040;-65
2022/08/27 07:59:23;;;;;;;4.47;1.17;;;23.70;66.70;;;;;;5093253;28;20503;-65
2022/08/27 08:01:49;;;;;;;5.38;1.33;;;23.70;66.60;;;;;;5094362;28;20139;-65
2022/08/27 08:04:14;;;;;;;3.83;0.82;;;23.80;66.60;;;;;;5094038;28;20104;-65
2022/08/27 08:06:40;;;;;;;3.72;1.00;;;23.80;66.50;;;;;;5093818;28;20036;-64
2022/08/27 08:09:06;;;;;;;3.78;1.20;;;23.80;66.40;;;;;;5094526;28;20059;-64
2022/08/27 08:11:32;;;;;;;4.07;1.38;;;23.80;66.30;;;;;;5094009;28;20044;-64
2022/08/27 08:13:58;;;;;;;4.50;1.40;;;23.80;66.30;;;;;;5093701;28;20047;-64
2022/08/27 08:16:24;;;;;;;5.00;1.10;;;23.90;66.30;;;;;;5093811;28;20048;-64
2022/08/27 08:18:50;;;;;;;5.13;1.13;;;23.90;66.20;;;;;;5093821;28;20125;-64
2022/08/27 08:21:15;;;;;;;6.40;1.63;;;23.90;66.10;;;;;;5093270;28;20052;-64
2022/08/27 08:23:41;;;;;;;6.60;1.30;;;23.90;66.00;;;;;;5094311;28;20059;-64
2022/08/27 08:26:07;;;;;;;3.65;1.15;;;23.90;66.00;;;;;;5094040;28;20114;-64
2022/08/27 08:28:33;;;;;;;3.15;0.90;;;23.90;66.00;;;;;;5093221;28;20647;-65
2022/08/27 08:30:59;;;;;;;4.78;1.20;;;23.90;65.90;;;;;;5092948;28;20075;-64
2022/08/27 08:33:26;;;;;;;3.05;1.08;;;23.90;65.80;;;;;;5092043;28;20067;-65
2022/08/27 08:35:51;;;;;;;3.88;1.20;;;23.90;65.80;;;;;;5093150;28;20040;-64
2022/08/27 08:38:17;;;;;;;4.72;0.90;;;23.90;65.70;;;;;;5093636;28;20047;-64
2022/08/27 08:40:48;;;;;;;5.88;1.15;;;23.90;65.70;;;;;;5092354;28;20067;-64
2022/08/27 08:43:33;;;;;;;4.25;1.27;;;23.90;65.70;;;;;;5091672;28;20090;-66
2022/08/27 08:46:25;;;;;;;3.47;1.10;;;23.90;65.70;;;;;;5093350;28;20402;-64
2022/08/27 08:48:51;;;;;;;2.92;1.00;;;23.90;65.70;;;;;;5092609;28;20048;-64
2022/08/27 08:51:43;;;;;;;3.70;1.00;;;23.90;65.80;;;;;;5075463;28;20055;-65
2022/08/27 08:54:17;;;;;;;3.53;1.00;;;23.90;65.80;;;;;;5089350;28;20052;-64
2022/08/27 08:56:51;;;;;;;4.97;0.98;;;23.80;65.70;;;;;;5091717;28;20040;-64
2022/08/27 08:59:30;;;;;;;5.45;1.17;;;23.80;65.80;;;;;;5092493;28;20076;-65
2022/08/27 09:01:56;;;;;;;3.65;1.02;;;23.80;65.70;;;;;;5092459;28;20072;-64
2022/08/27 09:04:22;;;;;;;2.85;0.95;;;23.80;65.80;;;;;;5091033;28;20044;-64
2022/08/27 09:07:03;;;;;;;5.90;1.33;;;23.80;65.80;;;;;;5091839;28;20051;-64
2022/08/27 09:09:46;;;;;;;5.00;1.17;;;23.80;65.80;;;;;;5076350;28;20040;-64
2022/08/27 09:12:14;;;;;;;3.35;1.08;;;23.80;65.70;;;;;;5093363;28;20046;-64
2022/08/27 09:15:06;;;;;;;2.65;1.00;;;23.70;65.70;;;;;;5091973;28;20044;-64
2022/08/27 09:17:33;;;;;;;3.95;0.85;;;23.80;65.80;;;;;;5090739;28;20513;-64
2022/08/27 09:19:59;;;;;;;2.55;1.08;;;23.70;65.70;;;;;;5092775;28;20047;-64
2022/08/27 09:22:48;;;;;;;3.92;1.23;;;23.70;65.70;;;;;;5092789;28;20047;-64
2022/08/27 09:25:19;;;;;;;2.58;0.85;;;23.80;65.80;;;;;;5052333;28;20055;-64
2022/08/27 09:27:45;;;;;;;4.78;1.08;;;23.80;65.80;;;;;;5075420;28;20052;-64
2022/08/27 09:30:15;;;;;;;2.03;1.08;;;23.70;65.70;;;;;;5092003;28;20089;-64
2022/08/27 09:32:40;;;;;;;2.95;1.10;;;23.70;65.70;;;;;;5090920;28;20059;-64
2022/08/27 09:35:08;;;;;;;3.13;1.08;;;23.70;65.70;;;;;;5092719;28;20044;-64
2022/08/27 09:37:42;;;;;;;2.50;0.90;;;23.70;65.70;;;;;;5092568;28;20059;-64
2022/08/27 09:40:16;;;;;;;2.55;1.20;;;23.80;65.80;;;;;;5074661;28;20104;-64
2022/08/27 09:42:46;;;;;;;3.38;0.95;;;23.70;65.80;;;;;;5091933;28;20237;-64
2022/08/27 09:45:23;;;;;;;2.78;0.90;;;23.80;65.80;;;;;;5092251;28;20048;-64
2022/08/27 09:48:13;;;;;;;2.17;0.70;;;23.80;65.80;;;;;;5092839;28;20078;-64
2022/08/27 09:50:46;;;;;;;3.20;0.80;;;23.80;65.80;;;;;;5092244;28;20060;-64
2022/08/27 09:53:17;;;;;;;4.53;0.80;;;23.80;65.80;;;;;;5090897;28;20040;-64
2022/08/27 09:55:51;;;;;;;1.92;0.63;;;23.80;65.80;;;;;;5091591;28;20130;-64
2022/08/27 09:58:43;;;;;;;2.95;0.95;;;23.80;65.80;;;;;;5075308;28;20084;-64
2022/08/27 10:01:17;;;;;;;3.17;0.85;;;23.80;65.80;;;;;;5092131;28;20403;-64
2022/08/27 10:03:43;;;;;;;4.28;1.10;;;23.80;65.80;;;;;;5092804;28;20049;-64
2022/08/27 10:06:09;;;;;;;3.13;0.90;;;23.80;65.80;;;;;;5092066;28;20372;-64
2022/08/27 10:08:40;;;;;;;1.45;0.57;;;23.80;65.70;;;;;;5091324;28;20108;-64
2022/08/27 10:11:16;;;;;;;2.80;1.10;;;23.80;65.80;;;;;;5091295;28;20044;-64
2022/08/27 10:13:55;;;;;;;4.05;0.80;;;23.80;65.80;;;;;;5091991;28;20162;-64
2022/08/27 10:16:42;;;;;;;2.75;1.00;;;23.80;65.80;;;;;;5091151;28;20048;-64
2022/08/27 10:19:15;;;;;;;2.53;0.77;;;23.80;65.80;;;;;;5092659;28;20054;-64
2022/08/27 10:21:44;;;;;;;4.10;1.00;;;23.80;65.80;;;;;;5090672;28;20044;-64
2022/08/27 10:24:27;;;;;;;2.03;0.77;;;23.80;65.80;;;;;;5092344;28;20048;-64
2022/08/27 10:27:22;;;;;;;3.42;0.90;;;23.80;65.70;;;;;;5091999;28;20084;-64
2022/08/27 10:30:01;;;;;;;4.60;0.82;;;23.80;65.70;;;;;;5086385;28;20567;-64
2022/08/27 10:32:26;;;;;;;2.50;0.70;;;23.80;65.70;;;;;;5090841;28;20061;-64
2022/08/27 10:34:58;;;;;;;2.45;0.73;;;23.80;65.70;;;;;;5091588;28;20040;-64
2022/08/27 10:37:31;;;;;;;1.92;0.70;;;23.80;65.60;;;;;;5092275;28;20051;-64
2022/08/27 10:40:15;;;;;;;2.47;0.80;;;23.80;65.60;;;;;;5075288;28;20089;-64
2022/08/27 10:43:09;;;;;;;2.35;0.82;;;23.80;65.60;;;;;;5091342;28;20472;-64
2022/08/27 10:45:44;;;;;;;4.68;1.25;;;23.80;65.60;;;;;;5091194;28;20082;-64
2022/08/27 10:48:23;;;;;;;2.53;0.95;;;23.80;65.60;;;;;;5090477;28;20036;-64
2022/08/27 10:50:57;;;;;;;1.77;0.70;;;23.80;65.60;;;;;;5093369;28;20047;-64
2022/08/27 10:53:32;;;;;;;2.83;0.77;;;23.80;65.50;;;;;;5095789;28;20052;-64
2022/08/27 10:56:08;;;;;;;2.95;0.80;;;23.80;65.50;;;;;;5094183;28;20128;-64
2022/08/27 10:58:41;;;;;;;2.00;0.65;;;23.80;65.40;;;;;;5077772;28;20589;-64
2022/08/27 11:01:31;;;;;;;2.25;0.80;;;23.90;65.40;;;;;;5094405;28;20325;-64
2022/08/27 11:04:33;;;;;;;1.60;0.57;;;23.90;65.40;;;;;;5094987;28;20044;-64
2022/08/27 11:07:20;;;;;;;4.45;1.00;;;23.90;65.30;;;;;;5092477;28;20052;-64
2022/08/27 11:09:57;;;;;;;2.85;0.73;;;23.90;65.20;;;;;;5094619;28;20079;-64
2022/08/27 11:12:30;;;;;;;2.63;0.60;;;23.90;65.20;;;;;;5094328;28;20040;-64
2022/08/27 11:15:13;;;;;;;2.47;0.80;;;24.00;65.20;;;;;;5077811;28;20095;-64
2022/08/27 11:17:50;;;;;;;2.40;0.82;;;24.00;65.10;;;;;;5077306;28;20129;-64
2022/08/27 11:20:40;;;;;;;2.17;0.60;;;24.00;65.00;;;;;;5093916;28;20149;-64
2022/08/27 11:23:17;;;;;;;3.25;0.70;;;24.00;64.90;;;;;;5078758;28;20052;-64
2022/08/27 11:25:55;;;;;;;3.17;0.93;;;24.00;64.90;;;;;;5078640;28;20064;-64
2022/08/27 11:28:36;;;;;;;;;;;24.00;64.80;;;;;;5094382;28;20048;-64
2022/08/27 11:31:24;;;;;;;2.20;0.60;;;24.00;64.80;;;;;;5094543;28;19927;-64
2022/08/27 11:34:30;;;;;;;2.25;0.60;;;24.00;64.80;;;;;;5093561;28;20067;-64
2022/08/27 11:37:05;;;;;;;3.03;0.80;;;24.00;64.70;;;;;;5093932;28;20091;-64
2022/08/27 11:39:34;;;;;;;3.83;0.80;;;24.00;64.70;;;;;;5076618;28;20515;-64
2022/08/27 11:42:07;;;;;;;2.95;1.13;;;24.00;64.70;;;;;;5095095;28;20044;-64
2022/08/27 11:44:38;;;;;;;3.78;0.70;;;24.00;64.70;;;;;;5092498;28;20805;-64
2022/08/27 11:47:20;;;;;;;3.95;0.80;;;24.00;64.60;;;;;;5077377;28;20036;-64
2022/08/27 11:49:49;;;;;;;2.90;0.68;;;24.00;64.60;;;;;;5093778;28;20080;-64
2022/08/27 11:52:30;;;;;;;4.32;0.60;;;24.00;64.50;;;;;;5093802;28;20054;-64
2022/08/27 11:55:07;;;;;;;3.67;0.77;;;24.10;64.70;;;;;;5093688;28;20044;-64
2022/08/27 11:57:33;;;;;;;4.07;0.75;;;24.10;64.60;;;;;;5094169;28;20121;-64
2022/08/27 12:00:19;;;;;;;2.65;0.90;;;24.10;64.50;;;;;;5093890;28;20083;-64
2022/08/27 12:03:02;;;;;;;3.42;1.00;;;24.10;64.40;;;;;;5094135;28;20048;-64
2022/08/27 12:05:38;;;;;;;1.75;0.70;;;24.20;64.40;;;;;;5093490;28;20074;-64
2022/08/27 12:08:33;;;;;;;2.00;0.60;;;24.20;64.40;;;;;;5094544;28;20050;-64
2022/08/27 12:11:21;;;;;;;2.53;0.82;;;24.20;64.30;;;;;;5079197;28;20085;-64
2022/08/27 12:14:12;;;;;;;1.88;0.60;;;24.20;64.40;;;;;;5093699;28;20093;-64
2022/08/27 12:16:46;;;;;;;4.80;1.10;;;24.20;64.40;;;;;;5092879;28;20083;-64
2022/08/27 12:19:22;;;;;;;2.60;0.80;;;24.20;64.40;;;;;;5093978;28;20162;-64
2022/08/27 12:22:26;;;;;;;2.72;0.60;;;24.20;64.20;;;;;;5075338;28;20040;-64
2022/08/27 12:24:55;;;;;;;1.77;0.63;;;24.20;64.30;;;;;;5093916;28;20449;-64
2022/08/27 12:27:21;;;;;;;1.65;0.60;;;24.20;64.20;;;;;;5091992;28;20082;-64
2022/08/27 12:29:52;;;;;;;2.10;0.80;;;24.20;64.10;;;;;;5094153;28;20083;-64
2022/08/27 12:32:36;;;;;;;2.13;0.60;;;24.20;64.10;;;;;;5093402;28;20060;-64
2022/08/27 12:35:27;;;;;;;5.00;0.82;;;24.20;64.20;;;;;;5092769;28;20044;-64
2022/08/27 12:38:14;;;;;;;2.33;0.63;;;24.20;64.20;;;;;;5093990;28;20055;-64
2022/08/27 12:40:45;;;;;;;2.20;0.60;;;24.20;64.20;;;;;;5092925;28;20507;-64
2022/08/27 12:43:12;;;;;;;3.35;0.80;;;24.20;64.10;;;;;;5092469;28;20040;-64
2022/08/27 12:46:08;;;;;;;2.92;0.60;;;24.20;64.10;;;;;;5093369;28;20131;-64
2022/08/27 12:48:40;;;;;;;3.70;0.60;;;24.20;64.20;;;;;;5084158;28;20052;-65
2022/08/27 12:51:09;;;;;;;2.85;0.75;;;24.20;64.20;;;;;;5092241;28;20059;-64
2022/08/27 12:53:46;;;;;;;2.90;0.80;;;24.20;64.20;;;;;;5092261;28;20410;-63
2022/08/27 12:56:24;;;;;;;1.85;0.52;;;24.20;64.10;;;;;;5093021;28;20044;-63
2022/08/27 12:59:20;;;;;;;2.47;0.50;;;24.20;64.10;;;;;;5093566;28;20101;-64
2022/08/27 13:02:11;;;;;;;1.45;0.60;;;24.20;64.00;;;;;;5076554;28;20131;-63
2022/08/27 13:04:38;;;;;;;1.75;0.60;;;24.20;64.10;;;;;;5091953;28;20127;-64
2022/08/27 13:07:03;;;;;;;2.63;0.60;;;24.20;64.00;;;;;;5093354;28;20048;-63
2022/08/27 13:09:31;;;;;;;2.50;0.52;;;24.20;64.00;;;;;;5092291;28;20047;-64
2022/08/27 13:11:58;;;;;;;2.75;0.70;;;24.20;64.10;;;;;;5093437;28;20044;-64